sensor_id;sensor_type;location;lat;lon;timestamp;P1;durP1;ratioP1;P2;durP2;ratioP2
61785;SDS011;47692;53.714;11.372;2022-12-18T00:01:46;52.63;;;18.52;;
61785;SDS011;47692;53.714;11.372;2022-12-18T00:04:16;49.03;;;18.88;;
61785;SDS011;47692;53.714;11.372;2022-12-18T00:06:45;42.80;;;16.80;;
61785;SDS011;47692;53.714;11.372;2022-12-18T00:09:10;50.08;;;18.63;;
61785;SDS011;47692;53.714;11.372;2022-12-18T00:11:36;42.25;;;16.48;;
61785;SDS011;47692;53.714;11.372;2022-12-18T00:14:01;47.55;;;16.42;;
61785;SDS011;47692;53.714;11.372;2022-12-18T00:16:27;43.63;;;17.55;;
61785;SDS011;47692;53.714;11.372;2022-12-18T00:18:55;39.40;;;15.63;;
61785;SDS011;47692;53.714;11.372;2022-12-18T00:21:25;46.85;;;15.52;;
61785;SDS011;47692;53.714;11.372;2022-12-18T00:23:52;49.28;;;17.30;;
61785;SDS011;47692;53.714;11.372;2022-12-18T00:28:44;40.80;;;16.85;;
61785;SDS011;47692;53.714;11.372;2022-12-18T00:31:11;43.33;;;16.20;;
61785;SDS011;47692;53.714;11.372;2022-12-18T00:33:39;39.45;;;14.95;;
61785;SDS011;47692;53.714;11.372;2022-12-18T00:36:06;36.58;;;14.57;;
61785;SDS011;47692;53.714;11.372;2022-12-18T00:38:40;44.65;;;17.42;;
61785;SDS011;47692;53.714;11.372;2022-12-18T00:41:06;40.97;;;14.75;;
61785;SDS011;47692;53.714;11.372;2022-12-18T00:43:35;47.67;;;15.88;;
61785;SDS011;47692;53.714;11.372;2022-12-18T00:46:01;42.42;;;14.93;;
61785;SDS011;47692;53.714;11.372;2022-12-18T00:48:26;37.03;;;14.88;;
61785;SDS011;47692;53.714;11.372;2022-12-18T00:50:52;44.60;;;15.02;;
61785;SDS011;47692;53.714;11.372;2022-12-18T00:53:17;42.10;;;15.77;;
61785;SDS011;47692;53.714;11.372;2022-12-18T00:55:43;35.50;;;13.27;;
61785;SDS011;47692;53.714;11.372;2022-12-18T00:58:10;33.25;;;14.38;;
61785;SDS011;47692;53.714;11.372;2022-12-18T01:00:36;42.10;;;15.38;;
61785;SDS011;47692;53.714;11.372;2022-12-18T01:03:03;46.60;;;16.40;;
61785;SDS011;47692;53.714;11.372;2022-12-18T01:05:28;39.72;;;15.20;;
61785;SDS011;47692;53.714;11.372;2022-12-18T01:07:54;39.97;;;15.15;;
61785;SDS011;47692;53.714;11.372;2022-12-18T01:10:20;40.70;;;16.40;;
61785;SDS011;47692;53.714;11.372;2022-12-18T01:12:45;35.80;;;14.57;;
61785;SDS011;47692;53.714;11.372;2022-12-18T01:15:11;39.05;;;14.70;;
61785;SDS011;47692;53.714;11.372;2022-12-18T01:17:38;43.53;;;16.47;;
61785;SDS011;47692;53.714;11.372;2022-12-18T01:20:03;36.72;;;14.02;;
61785;SDS011;47692;53.714;11.372;2022-12-18T01:22:30;37.50;;;14.80;;
61785;SDS011;47692;53.714;11.372;2022-12-18T01:24:55;44.95;;;14.52;;
61785;SDS011;47692;53.714;11.372;2022-12-18T01:27:20;33.92;;;13.43;;
61785;SDS011;47692;53.714;11.372;2022-12-18T01:29:46;35.92;;;14.23;;
61785;SDS011;47692;53.714;11.372;2022-12-18T01:32:11;47.30;;;16.13;;
61785;SDS011;47692;53.714;11.372;2022-12-18T01:34:36;36.00;;;14.40;;
61785;SDS011;47692;53.714;11.372;2022-12-18T01:37:05;41.55;;;16.88;;
61785;SDS011;47692;53.714;11.372;2022-12-18T01:39:30;43.97;;;13.55;;
61785;SDS011;47692;53.714;11.372;2022-12-18T01:41:57;42.50;;;14.13;;
61785;SDS011;47692;53.714;11.372;2022-12-18T01:47:18;36.67;;;15.82;;
61785;SDS011;47692;53.714;11.372;2022-12-18T01:49:48;41.10;;;14.77;;
61785;SDS011;47692;53.714;11.372;2022-12-18T01:52:14;37.28;;;14.38;;
61785;SDS011;47692;53.714;11.372;2022-12-18T01:54:40;35.33;;;14.13;;
61785;SDS011;47692;53.714;11.372;2022-12-18T01:57:06;39.85;;;15.25;;
61785;SDS011;47692;53.714;11.372;2022-12-18T01:59:32;24.33;;;11.57;;
61785;SDS011;47692;53.714;11.372;2022-12-18T02:01:58;30.92;;;13.60;;
61785;SDS011;47692;53.714;11.372;2022-12-18T02:04:25;39.90;;;13.82;;
61785;SDS011;47692;53.714;11.372;2022-12-18T02:06:57;33.63;;;12.55;;
61785;SDS011;47692;53.714;11.372;2022-12-18T02:09:59;38.67;;;14.60;;
61785;SDS011;47692;53.714;11.372;2022-12-18T02:12:35;25.98;;;12.85;;
61785;SDS011;47692;53.714;11.372;2022-12-18T02:15:39;28.27;;;12.00;;
61785;SDS011;47692;53.714;11.372;2022-12-18T02:18:21;33.03;;;12.57;;
61785;SDS011;47692;53.714;11.372;2022-12-18T02:23:35;34.22;;;13.40;;
61785;SDS011;47692;53.714;11.372;2022-12-18T02:26:21;33.20;;;12.60;;
61785;SDS011;47692;53.714;11.372;2022-12-18T02:31:28;29.05;;;11.80;;
61785;SDS011;47692;53.714;11.372;2022-12-18T02:34:00;31.70;;;13.77;;
61785;SDS011;47692;53.714;11.372;2022-12-18T02:36:29;29.10;;;10.65;;
61785;SDS011;47692;53.714;11.372;2022-12-18T02:38:57;34.53;;;12.27;;
61785;SDS011;47692;53.714;11.372;2022-12-18T02:41:24;29.13;;;11.35;;
61785;SDS011;47692;53.714;11.372;2022-12-18T02:43:58;25.33;;;11.23;;
61785;SDS011;47692;53.714;11.372;2022-12-18T02:48:53;30.15;;;11.68;;
61785;SDS011;47692;53.714;11.372;2022-12-18T02:51:27;37.70;;;12.60;;
61785;SDS011;47692;53.714;11.372;2022-12-18T02:53:58;31.73;;;13.10;;
61785;SDS011;47692;53.714;11.372;2022-12-18T02:59:19;29.58;;;11.38;;
61785;SDS011;47692;53.714;11.372;2022-12-18T03:04:26;29.00;;;10.80;;
61785;SDS011;47692;53.714;11.372;2022-12-18T03:06:56;23.52;;;8.52;;
61785;SDS011;47692;53.714;11.372;2022-12-18T03:09:30;33.70;;;10.75;;
61785;SDS011;47692;53.714;11.372;2022-12-18T03:12:12;27.25;;;10.35;;
61785;SDS011;47692;53.714;11.372;2022-12-18T03:14:50;27.00;;;10.82;;
61785;SDS011;47692;53.714;11.372;2022-12-18T03:17:19;26.80;;;10.25;;
61785;SDS011;47692;53.714;11.372;2022-12-18T03:19:48;24.45;;;10.23;;
61785;SDS011;47692;53.714;11.372;2022-12-18T03:22:17;24.55;;;9.40;;
61785;SDS011;47692;53.714;11.372;2022-12-18T03:24:43;23.38;;;11.30;;
61785;SDS011;47692;53.714;11.372;2022-12-18T03:27:11;26.70;;;11.38;;
61785;SDS011;47692;53.714;11.372;2022-12-18T03:29:42;27.05;;;10.60;;
61785;SDS011;47692;53.714;11.372;2022-12-18T03:32:31;25.42;;;10.57;;
61785;SDS011;47692;53.714;11.372;2022-12-18T03:35:03;25.02;;;9.85;;
61785;SDS011;47692;53.714;11.372;2022-12-18T03:37:30;27.75;;;10.80;;
61785;SDS011;47692;53.714;11.372;2022-12-18T03:39:56;28.73;;;11.35;;
61785;SDS011;47692;53.714;11.372;2022-12-18T03:42:28;16.58;;;8.20;;
61785;SDS011;47692;53.714;11.372;2022-12-18T03:45:07;26.80;;;11.32;;
61785;SDS011;47692;53.714;11.372;2022-12-18T03:53:03;23.77;;;10.50;;
61785;SDS011;47692;53.714;11.372;2022-12-18T03:55:30;19.83;;;9.68;;
61785;SDS011;47692;53.714;11.372;2022-12-18T03:57:59;21.23;;;11.00;;
61785;SDS011;47692;53.714;11.372;2022-12-18T04:00:27;23.75;;;8.82;;
61785;SDS011;47692;53.714;11.372;2022-12-18T04:02:54;25.20;;;11.33;;
61785;SDS011;47692;53.714;11.372;2022-12-18T04:05:21;29.00;;;11.53;;
61785;SDS011;47692;53.714;11.372;2022-12-18T04:07:50;28.15;;;10.75;;
61785;SDS011;47692;53.714;11.372;2022-12-18T04:10:17;27.27;;;11.52;;
61785;SDS011;47692;53.714;11.372;2022-12-18T04:12:43;27.13;;;11.20;;
61785;SDS011;47692;53.714;11.372;2022-12-18T04:15:09;19.30;;;9.87;;
61785;SDS011;47692;53.714;11.372;2022-12-18T04:17:35;18.73;;;9.43;;
61785;SDS011;47692;53.714;11.372;2022-12-18T04:20:00;24.05;;;9.57;;
61785;SDS011;47692;53.714;11.372;2022-12-18T04:22:26;25.07;;;10.20;;
61785;SDS011;47692;53.714;11.372;2022-12-18T04:24:51;32.27;;;10.83;;
61785;SDS011;47692;53.714;11.372;2022-12-18T04:27:17;23.10;;;8.97;;
61785;SDS011;47692;53.714;11.372;2022-12-18T04:29:42;24.33;;;11.40;;
61785;SDS011;47692;53.714;11.372;2022-12-18T04:32:08;25.17;;;10.37;;
61785;SDS011;47692;53.714;11.372;2022-12-18T04:34:33;24.90;;;10.60;;
61785;SDS011;47692;53.714;11.372;2022-12-18T04:36:59;24.13;;;9.63;;
61785;SDS011;47692;53.714;11.372;2022-12-18T04:39:24;22.67;;;10.17;;
61785;SDS011;47692;53.714;11.372;2022-12-18T04:41:49;26.53;;;12.00;;
61785;SDS011;47692;53.714;11.372;2022-12-18T04:44:15;28.40;;;10.17;;
61785;SDS011;47692;53.714;11.372;2022-12-18T04:46:40;27.42;;;10.38;;
61785;SDS011;47692;53.714;11.372;2022-12-18T04:49:06;25.07;;;11.93;;
61785;SDS011;47692;53.714;11.372;2022-12-18T04:51:31;22.90;;;10.43;;
61785;SDS011;47692;53.714;11.372;2022-12-18T04:53:56;20.07;;;7.50;;
61785;SDS011;47692;53.714;11.372;2022-12-18T04:56:22;28.43;;;8.87;;
61785;SDS011;47692;53.714;11.372;2022-12-18T04:58:47;26.63;;;9.63;;
61785;SDS011;47692;53.714;11.372;2022-12-18T05:01:13;24.45;;;9.90;;
61785;SDS011;47692;53.714;11.372;2022-12-18T05:03:39;24.90;;;10.03;;
61785;SDS011;47692;53.714;11.372;2022-12-18T05:06:05;23.60;;;9.17;;
61785;SDS011;47692;53.714;11.372;2022-12-18T05:08:31;20.50;;;9.03;;
61785;SDS011;47692;53.714;11.372;2022-12-18T05:11:10;26.67;;;10.77;;
61785;SDS011;47692;53.714;11.372;2022-12-18T05:13:38;20.38;;;8.88;;
61785;SDS011;47692;53.714;11.372;2022-12-18T05:16:04;23.30;;;9.40;;
61785;SDS011;47692;53.714;11.372;2022-12-18T05:18:30;21.63;;;8.23;;
61785;SDS011;47692;53.714;11.372;2022-12-18T05:20:56;25.73;;;10.37;;
61785;SDS011;47692;53.714;11.372;2022-12-18T05:23:22;22.87;;;10.63;;
61785;SDS011;47692;53.714;11.372;2022-12-18T05:25:55;24.90;;;10.03;;
61785;SDS011;47692;53.714;11.372;2022-12-18T05:28:26;23.63;;;9.53;;
61785;SDS011;47692;53.714;11.372;2022-12-18T05:30:54;27.77;;;8.93;;
61785;SDS011;47692;53.714;11.372;2022-12-18T05:33:22;25.20;;;9.80;;
61785;SDS011;47692;53.714;11.372;2022-12-18T05:35:52;23.23;;;8.50;;
61785;SDS011;47692;53.714;11.372;2022-12-18T05:38:19;24.30;;;10.17;;
61785;SDS011;47692;53.714;11.372;2022-12-18T05:40:45;13.98;;;7.28;;
61785;SDS011;47692;53.714;11.372;2022-12-18T05:43:10;21.20;;;9.57;;
61785;SDS011;47692;53.714;11.372;2022-12-18T05:45:37;22.17;;;9.60;;
61785;SDS011;47692;53.714;11.372;2022-12-18T05:48:03;28.03;;;9.30;;
61785;SDS011;47692;53.714;11.372;2022-12-18T05:50:28;27.07;;;11.17;;
61785;SDS011;47692;53.714;11.372;2022-12-18T05:52:54;22.97;;;9.87;;
61785;SDS011;47692;53.714;11.372;2022-12-18T05:55:19;28.40;;;9.97;;
61785;SDS011;47692;53.714;11.372;2022-12-18T05:57:44;28.33;;;9.40;;
61785;SDS011;47692;53.714;11.372;2022-12-18T06:00:10;25.50;;;9.63;;
61785;SDS011;47692;53.714;11.372;2022-12-18T06:02:36;21.50;;;10.10;;
61785;SDS011;47692;53.714;11.372;2022-12-18T06:05:01;22.45;;;9.75;;
61785;SDS011;47692;53.714;11.372;2022-12-18T06:07:26;22.17;;;8.87;;
61785;SDS011;47692;53.714;11.372;2022-12-18T06:09:52;20.07;;;9.20;;
61785;SDS011;47692;53.714;11.372;2022-12-18T06:12:17;20.80;;;9.37;;
61785;SDS011;47692;53.714;11.372;2022-12-18T06:14:42;19.23;;;8.47;;
61785;SDS011;47692;53.714;11.372;2022-12-18T06:17:08;17.30;;;9.03;;
61785;SDS011;47692;53.714;11.372;2022-12-18T06:19:33;21.17;;;8.73;;
61785;SDS011;47692;53.714;11.372;2022-12-18T06:21:59;23.57;;;9.33;;
61785;SDS011;47692;53.714;11.372;2022-12-18T06:24:24;23.83;;;9.80;;
61785;SDS011;47692;53.714;11.372;2022-12-18T06:26:50;30.00;;;11.80;;
61785;SDS011;47692;53.714;11.372;2022-12-18T06:29:15;24.50;;;9.20;;
61785;SDS011;47692;53.714;11.372;2022-12-18T06:31:40;15.73;;;8.07;;
61785;SDS011;47692;53.714;11.372;2022-12-18T06:34:05;22.15;;;9.35;;
61785;SDS011;47692;53.714;11.372;2022-12-18T06:36:31;22.43;;;9.17;;
61785;SDS011;47692;53.714;11.372;2022-12-18T06:38:57;23.17;;;8.87;;
61785;SDS011;47692;53.714;11.372;2022-12-18T06:41:22;24.23;;;9.00;;
61785;SDS011;47692;53.714;11.372;2022-12-18T06:43:48;21.90;;;9.18;;
61785;SDS011;47692;53.714;11.372;2022-12-18T06:46:13;21.38;;;8.48;;
61785;SDS011;47692;53.714;11.372;2022-12-18T06:48:38;29.67;;;10.18;;
61785;SDS011;47692;53.714;11.372;2022-12-18T06:51:04;22.90;;;7.65;;
61785;SDS011;47692;53.714;11.372;2022-12-18T06:53:29;15.73;;;8.07;;
61785;SDS011;47692;53.714;11.372;2022-12-18T06:56:00;17.90;;;9.57;;
61785;SDS011;47692;53.714;11.372;2022-12-18T06:58:29;31.70;;;10.83;;
61785;SDS011;47692;53.714;11.372;2022-12-18T07:01:02;19.67;;;8.73;;
61785;SDS011;47692;53.714;11.372;2022-12-18T07:03:28;22.33;;;8.95;;
61785;SDS011;47692;53.714;11.372;2022-12-18T07:05:54;18.95;;;8.10;;
61785;SDS011;47692;53.714;11.372;2022-12-18T07:08:19;16.97;;;8.40;;
61785;SDS011;47692;53.714;11.372;2022-12-18T07:10:45;22.55;;;7.90;;
61785;SDS011;47692;53.714;11.372;2022-12-18T07:13:10;20.40;;;9.23;;
61785;SDS011;47692;53.714;11.372;2022-12-18T07:15:35;19.77;;;8.63;;
61785;SDS011;47692;53.714;11.372;2022-12-18T07:18:01;22.63;;;8.13;;
61785;SDS011;47692;53.714;11.372;2022-12-18T07:20:26;19.23;;;9.57;;
61785;SDS011;47692;53.714;11.372;2022-12-18T07:22:52;21.13;;;8.83;;
61785;SDS011;47692;53.714;11.372;2022-12-18T07:25:17;22.90;;;8.23;;
61785;SDS011;47692;53.714;11.372;2022-12-18T07:27:42;25.47;;;10.13;;
61785;SDS011;47692;53.714;11.372;2022-12-18T07:30:08;23.13;;;9.20;;
61785;SDS011;47692;53.714;11.372;2022-12-18T07:32:34;18.00;;;9.80;;
61785;SDS011;47692;53.714;11.372;2022-12-18T07:34:59;26.55;;;10.23;;
61785;SDS011;47692;53.714;11.372;2022-12-18T07:37:24;15.48;;;7.72;;
61785;SDS011;47692;53.714;11.372;2022-12-18T07:39:50;22.65;;;8.55;;
61785;SDS011;47692;53.714;11.372;2022-12-18T07:42:15;19.70;;;8.43;;
61785;SDS011;47692;53.714;11.372;2022-12-18T07:44:56;20.60;;;10.17;;
61785;SDS011;47692;53.714;11.372;2022-12-18T07:47:21;22.40;;;10.47;;
61785;SDS011;47692;53.714;11.372;2022-12-18T07:49:47;21.10;;;9.23;;
61785;SDS011;47692;53.714;11.372;2022-12-18T07:52:12;19.90;;;8.97;;
61785;SDS011;47692;53.714;11.372;2022-12-18T07:54:38;29.23;;;10.70;;
61785;SDS011;47692;53.714;11.372;2022-12-18T07:57:03;26.47;;;11.20;;
61785;SDS011;47692;53.714;11.372;2022-12-18T07:59:29;24.13;;;9.77;;
61785;SDS011;47692;53.714;11.372;2022-12-18T08:01:54;19.90;;;8.87;;
61785;SDS011;47692;53.714;11.372;2022-12-18T08:04:20;28.33;;;11.73;;
61785;SDS011;47692;53.714;11.372;2022-12-18T08:06:45;25.77;;;10.83;;
61785;SDS011;47692;53.714;11.372;2022-12-18T08:09:10;25.95;;;7.80;;
61785;SDS011;47692;53.714;11.372;2022-12-18T08:11:36;25.13;;;10.18;;
61785;SDS011;47692;53.714;11.372;2022-12-18T08:14:01;25.55;;;8.70;;
61785;SDS011;47692;53.714;11.372;2022-12-18T08:16:27;25.10;;;11.50;;
61785;SDS011;47692;53.714;11.372;2022-12-18T08:18:52;29.17;;;9.73;;
61785;SDS011;47692;53.714;11.372;2022-12-18T08:21:19;26.20;;;10.53;;
61785;SDS011;47692;53.714;11.372;2022-12-18T08:23:48;23.00;;;10.27;;
61785;SDS011;47692;53.714;11.372;2022-12-18T08:26:13;25.88;;;12.00;;
61785;SDS011;47692;53.714;11.372;2022-12-18T08:28:39;21.43;;;10.67;;
61785;SDS011;47692;53.714;11.372;2022-12-18T08:31:05;20.42;;;9.07;;
61785;SDS011;47692;53.714;11.372;2022-12-18T08:33:31;25.00;;;10.07;;
61785;SDS011;47692;53.714;11.372;2022-12-18T08:36:01;32.40;;;11.13;;
61785;SDS011;47692;53.714;11.372;2022-12-18T08:38:27;29.55;;;11.45;;
61785;SDS011;47692;53.714;11.372;2022-12-18T08:40:59;25.65;;;10.43;;
61785;SDS011;47692;53.714;11.372;2022-12-18T08:43:25;22.87;;;8.93;;
61785;SDS011;47692;53.714;11.372;2022-12-18T08:46:10;23.10;;;10.17;;
61785;SDS011;47692;53.714;11.372;2022-12-18T08:48:35;24.23;;;10.83;;
61785;SDS011;47692;53.714;11.372;2022-12-18T08:51:01;22.33;;;9.18;;
61785;SDS011;47692;53.714;11.372;2022-12-18T08:53:26;24.30;;;10.10;;
61785;SDS011;47692;53.714;11.372;2022-12-18T08:55:52;22.60;;;9.90;;
61785;SDS011;47692;53.714;11.372;2022-12-18T08:58:18;24.25;;;10.73;;
61785;SDS011;47692;53.714;11.372;2022-12-18T09:00:44;24.27;;;9.90;;
61785;SDS011;47692;53.714;11.372;2022-12-18T09:03:15;31.85;;;10.77;;
61785;SDS011;47692;53.714;11.372;2022-12-18T09:05:42;25.08;;;10.02;;
61785;SDS011;47692;53.714;11.372;2022-12-18T09:08:08;31.30;;;10.43;;
61785;SDS011;47692;53.714;11.372;2022-12-18T09:10:40;24.23;;;10.13;;
61785;SDS011;47692;53.714;11.372;2022-12-18T09:13:06;26.15;;;10.52;;
61785;SDS011;47692;53.714;11.372;2022-12-18T09:15:32;20.83;;;9.45;;
61785;SDS011;47692;53.714;11.372;2022-12-18T09:17:57;29.13;;;11.13;;
61785;SDS011;47692;53.714;11.372;2022-12-18T09:20:22;23.17;;;8.43;;
61785;SDS011;47692;53.714;11.372;2022-12-18T09:22:48;23.55;;;9.27;;
61785;SDS011;47692;53.714;11.372;2022-12-18T09:25:13;36.35;;;10.95;;
61785;SDS011;47692;53.714;11.372;2022-12-18T09:27:38;22.13;;;8.30;;
61785;SDS011;47692;53.714;11.372;2022-12-18T09:30:04;19.77;;;9.38;;
61785;SDS011;47692;53.714;11.372;2022-12-18T09:32:30;28.50;;;10.85;;
61785;SDS011;47692;53.714;11.372;2022-12-18T09:34:55;28.83;;;12.38;;
61785;SDS011;47692;53.714;11.372;2022-12-18T09:37:21;25.23;;;10.30;;
61785;SDS011;47692;53.714;11.372;2022-12-18T09:39:46;27.40;;;11.75;;
61785;SDS011;47692;53.714;11.372;2022-12-18T09:42:17;25.70;;;10.60;;
61785;SDS011;47692;53.714;11.372;2022-12-18T09:44:48;25.63;;;10.30;;
61785;SDS011;47692;53.714;11.372;2022-12-18T09:47:23;19.70;;;9.45;;
61785;SDS011;47692;53.714;11.372;2022-12-18T09:49:56;26.90;;;10.88;;
61785;SDS011;47692;53.714;11.372;2022-12-18T09:52:29;20.33;;;9.60;;
61785;SDS011;47692;53.714;11.372;2022-12-18T09:57:35;25.40;;;9.57;;
61785;SDS011;47692;53.714;11.372;2022-12-18T10:02:43;27.85;;;10.23;;
61785;SDS011;47692;53.714;11.372;2022-12-18T10:05:12;22.58;;;9.30;;
61785;SDS011;47692;53.714;11.372;2022-12-18T10:07:53;28.50;;;10.70;;
61785;SDS011;47692;53.714;11.372;2022-12-18T10:10:43;22.52;;;10.02;;
61785;SDS011;47692;53.714;11.372;2022-12-18T10:18:32;26.17;;;10.60;;
61785;SDS011;47692;53.714;11.372;2022-12-18T10:21:21;27.80;;;11.40;;
61785;SDS011;47692;53.714;11.372;2022-12-18T10:26:29;30.75;;;11.90;;
61785;SDS011;47692;53.714;11.372;2022-12-18T10:28:57;20.88;;;9.80;;
61785;SDS011;47692;53.714;11.372;2022-12-18T10:31:24;26.75;;;10.55;;
61785;SDS011;47692;53.714;11.372;2022-12-18T10:33:50;21.90;;;9.80;;
61785;SDS011;47692;53.714;11.372;2022-12-18T10:36:16;22.58;;;9.85;;
61785;SDS011;47692;53.714;11.372;2022-12-18T10:38:41;30.90;;;9.68;;
61785;SDS011;47692;53.714;11.372;2022-12-18T10:43:46;29.88;;;10.07;;
61785;SDS011;47692;53.714;11.372;2022-12-18T10:46:14;27.08;;;9.60;;
61785;SDS011;47692;53.714;11.372;2022-12-18T10:48:48;24.90;;;8.77;;
61785;SDS011;47692;53.714;11.372;2022-12-18T10:51:20;22.90;;;10.30;;
61785;SDS011;47692;53.714;11.372;2022-12-18T10:53:53;22.67;;;9.93;;
61785;SDS011;47692;53.714;11.372;2022-12-18T10:56:21;33.92;;;10.93;;
61785;SDS011;47692;53.714;11.372;2022-12-18T10:59:22;28.25;;;10.93;;
61785;SDS011;47692;53.714;11.372;2022-12-18T11:04:16;29.45;;;11.25;;
61785;SDS011;47692;53.714;11.372;2022-12-18T11:06:57;30.13;;;9.93;;
61785;SDS011;47692;53.714;11.372;2022-12-18T11:09:33;26.88;;;9.32;;
61785;SDS011;47692;53.714;11.372;2022-12-18T11:12:08;29.65;;;12.15;;
61785;SDS011;47692;53.714;11.372;2022-12-18T11:17:31;32.15;;;12.13;;
61785;SDS011;47692;53.714;11.372;2022-12-18T11:20:21;24.75;;;9.77;;
61785;SDS011;47692;53.714;11.372;2022-12-18T11:23:03;34.75;;;10.93;;
61785;SDS011;47692;53.714;11.372;2022-12-18T11:25:31;32.25;;;11.70;;
61785;SDS011;47692;53.714;11.372;2022-12-18T11:28:02;38.35;;;11.43;;
61785;SDS011;47692;53.714;11.372;2022-12-18T11:30:31;27.40;;;11.07;;
61785;SDS011;47692;53.714;11.372;2022-12-18T11:33:11;28.35;;;10.00;;
61785;SDS011;47692;53.714;11.372;2022-12-18T11:35:51;33.20;;;12.48;;
61785;SDS011;47692;53.714;11.372;2022-12-18T11:38:23;28.23;;;10.90;;
61785;SDS011;47692;53.714;11.372;2022-12-18T11:43:41;29.70;;;11.50;;
61785;SDS011;47692;53.714;11.372;2022-12-18T11:46:34;28.45;;;10.32;;
61785;SDS011;47692;53.714;11.372;2022-12-18T11:49:03;28.30;;;10.27;;
61785;SDS011;47692;53.714;11.372;2022-12-18T11:51:48;29.52;;;10.80;;
61785;SDS011;47692;53.714;11.372;2022-12-18T11:54:18;32.58;;;11.95;;
61785;SDS011;47692;53.714;11.372;2022-12-18T11:56:46;29.35;;;11.70;;
61785;SDS011;47692;53.714;11.372;2022-12-18T11:59:20;30.88;;;12.70;;
61785;SDS011;47692;53.714;11.372;2022-12-18T12:05:01;27.13;;;11.00;;
61785;SDS011;47692;53.714;11.372;2022-12-18T12:10:22;26.42;;;10.65;;
61785;SDS011;47692;53.714;11.372;2022-12-18T12:15:54;28.98;;;10.73;;
61785;SDS011;47692;53.714;11.372;2022-12-18T12:24:01;28.92;;;10.48;;
61785;SDS011;47692;53.714;11.372;2022-12-18T12:37:05;32.00;;;9.93;;
61785;SDS011;47692;53.714;11.372;2022-12-18T12:39:43;25.42;;;10.55;;
61785;SDS011;47692;53.714;11.372;2022-12-18T12:42:19;24.95;;;9.68;;
61785;SDS011;47692;53.714;11.372;2022-12-18T12:45:18;41.20;;;13.32;;
61785;SDS011;47692;53.714;11.372;2022-12-18T12:47:48;30.42;;;11.48;;
61785;SDS011;47692;53.714;11.372;2022-12-18T12:50:16;28.67;;;10.55;;
61785;SDS011;47692;53.714;11.372;2022-12-18T12:52:45;30.52;;;12.65;;
61785;SDS011;47692;53.714;11.372;2022-12-18T12:55:31;31.00;;;11.48;;
61785;SDS011;47692;53.714;11.372;2022-12-18T12:58:04;22.13;;;10.18;;
61785;SDS011;47692;53.714;11.372;2022-12-18T13:01:14;29.83;;;10.88;;
61785;SDS011;47692;53.714;11.372;2022-12-18T13:09:07;25.38;;;10.07;;
61785;SDS011;47692;53.714;11.372;2022-12-18T13:11:50;34.92;;;10.95;;
61785;SDS011;47692;53.714;11.372;2022-12-18T13:14:38;21.75;;;9.63;;
61785;SDS011;47692;53.714;11.372;2022-12-18T13:19:39;37.08;;;12.50;;
61785;SDS011;47692;53.714;11.372;2022-12-18T13:22:04;27.92;;;11.75;;
61785;SDS011;47692;53.714;11.372;2022-12-18T13:24:46;35.05;;;12.27;;
61785;SDS011;47692;53.714;11.372;2022-12-18T13:36:26;33.95;;;12.88;;
61785;SDS011;47692;53.714;11.372;2022-12-18T13:41:44;30.13;;;11.98;;
61785;SDS011;47692;53.714;11.372;2022-12-18T13:47:07;42.00;;;15.25;;
61785;SDS011;47692;53.714;11.372;2022-12-18T13:49:53;34.05;;;13.85;;
61785;SDS011;47692;53.714;11.372;2022-12-18T13:52:26;34.47;;;14.50;;
61785;SDS011;47692;53.714;11.372;2022-12-18T13:54:54;41.92;;;14.80;;
61785;SDS011;47692;53.714;11.372;2022-12-18T13:57:32;39.67;;;15.63;;
61785;SDS011;47692;53.714;11.372;2022-12-18T14:02:44;37.38;;;14.40;;
61785;SDS011;47692;53.714;11.372;2022-12-18T14:05:23;30.95;;;13.75;;
61785;SDS011;47692;53.714;11.372;2022-12-18T14:07:49;31.80;;;13.82;;
61785;SDS011;47692;53.714;11.372;2022-12-18T14:10:15;29.15;;;12.32;;
61785;SDS011;47692;53.714;11.372;2022-12-18T14:12:44;31.58;;;12.38;;
61785;SDS011;47692;53.714;11.372;2022-12-18T14:17:55;32.38;;;11.55;;
61785;SDS011;47692;53.714;11.372;2022-12-18T14:20:30;31.27;;;13.63;;
61785;SDS011;47692;53.714;11.372;2022-12-18T14:22:57;31.58;;;12.75;;
61785;SDS011;47692;53.714;11.372;2022-12-18T14:25:24;47.95;;;15.38;;
61785;SDS011;47692;53.714;11.372;2022-12-18T14:28:04;40.92;;;14.63;;
61785;SDS011;47692;53.714;11.372;2022-12-18T14:30:36;31.90;;;12.60;;
61785;SDS011;47692;53.714;11.372;2022-12-18T14:35:34;27.90;;;11.00;;
61785;SDS011;47692;53.714;11.372;2022-12-18T14:38:36;27.48;;;12.10;;
61785;SDS011;47692;53.714;11.372;2022-12-18T14:41:04;32.42;;;11.68;;
61785;SDS011;47692;53.714;11.372;2022-12-18T14:43:32;32.20;;;12.60;;
61785;SDS011;47692;53.714;11.372;2022-12-18T14:46:00;30.40;;;12.25;;
61785;SDS011;47692;53.714;11.372;2022-12-18T14:48:39;24.35;;;11.82;;
61785;SDS011;47692;53.714;11.372;2022-12-18T14:51:12;28.92;;;12.13;;
61785;SDS011;47692;53.714;11.372;2022-12-18T14:54:01;30.23;;;14.27;;
61785;SDS011;47692;53.714;11.372;2022-12-18T14:56:36;24.83;;;10.80;;
61785;SDS011;47692;53.714;11.372;2022-12-18T14:59:19;32.63;;;12.25;;
61785;SDS011;47692;53.714;11.372;2022-12-18T15:04:34;29.35;;;11.63;;
61785;SDS011;47692;53.714;11.372;2022-12-18T15:09:36;32.95;;;12.05;;
61785;SDS011;47692;53.714;11.372;2022-12-18T15:12:03;33.22;;;12.50;;
61785;SDS011;47692;53.714;11.372;2022-12-18T15:16:54;27.42;;;11.02;;
61785;SDS011;47692;53.714;11.372;2022-12-18T15:19:21;28.02;;;12.52;;
61785;SDS011;47692;53.714;11.372;2022-12-18T15:21:50;28.20;;;13.20;;
61785;SDS011;47692;53.714;11.372;2022-12-18T15:24:20;39.55;;;19.52;;
61785;SDS011;47692;53.714;11.372;2022-12-18T15:26:51;45.90;;;19.38;;
61785;SDS011;47692;53.714;11.372;2022-12-18T15:29:23;40.90;;;15.15;;
61785;SDS011;47692;53.714;11.372;2022-12-18T15:32:03;28.38;;;12.38;;
61785;SDS011;47692;53.714;11.372;2022-12-18T15:34:30;29.33;;;13.20;;
61785;SDS011;47692;53.714;11.372;2022-12-18T15:36:56;29.27;;;12.10;;
61785;SDS011;47692;53.714;11.372;2022-12-18T15:39:22;27.33;;;10.70;;
61785;SDS011;47692;53.714;11.372;2022-12-18T15:41:48;28.02;;;10.45;;
61785;SDS011;47692;53.714;11.372;2022-12-18T15:44:32;31.75;;;11.90;;
61785;SDS011;47692;53.714;11.372;2022-12-18T15:46:58;28.83;;;11.63;;
61785;SDS011;47692;53.714;11.372;2022-12-18T15:49:23;34.08;;;13.38;;
61785;SDS011;47692;53.714;11.372;2022-12-18T15:51:53;26.42;;;11.85;;
61785;SDS011;47692;53.714;11.372;2022-12-18T15:54:21;30.75;;;12.30;;
61785;SDS011;47692;53.714;11.372;2022-12-18T15:57:08;32.85;;;13.73;;
61785;SDS011;47692;53.714;11.372;2022-12-18T15:59:50;32.35;;;10.98;;
61785;SDS011;47692;53.714;11.372;2022-12-18T16:02:24;29.42;;;12.68;;
61785;SDS011;47692;53.714;11.372;2022-12-18T16:04:50;26.23;;;11.60;;
61785;SDS011;47692;53.714;11.372;2022-12-18T16:07:17;33.70;;;12.43;;
61785;SDS011;47692;53.714;11.372;2022-12-18T16:09:42;32.50;;;11.52;;
61785;SDS011;47692;53.714;11.372;2022-12-18T16:12:14;27.13;;;11.30;;
61785;SDS011;47692;53.714;11.372;2022-12-18T16:14:42;27.58;;;11.15;;
61785;SDS011;47692;53.714;11.372;2022-12-18T16:17:09;25.85;;;12.20;;
61785;SDS011;47692;53.714;11.372;2022-12-18T16:19:35;28.63;;;12.50;;